createdAt,value
2023-05-12T00:00:44.615Z,4.60
2023-05-12T00:03:14.385Z,5.50
2023-05-12T00:05:42.291Z,6.30
2023-05-12T00:08:10.296Z,4.50
2023-05-12T00:10:38.202Z,4.70
2023-05-12T00:13:06.190Z,5.80
2023-05-12T00:15:34.064Z,7.70
2023-05-12T00:18:01.860Z,6.90
2023-05-12T00:20:29.701Z,6.90
2023-05-12T00:22:57.440Z,6.80
2023-05-12T00:25:25.193Z,6.80
2023-05-12T00:27:52.904Z,6.20
2023-05-12T00:30:21.350Z,6.20
2023-05-12T00:32:49.435Z,7.30
2023-05-12T00:35:17.935Z,7.00
2023-05-12T00:37:45.835Z,8.10
2023-05-12T00:40:13.841Z,7.20
2023-05-12T00:42:42.118Z,7.40
2023-05-12T00:45:10.698Z,7.00
2023-05-12T00:47:39.155Z,8.40
2023-05-12T00:50:08.551Z,7.40
2023-05-12T00:52:36.665Z,8.00
2023-05-12T00:55:05.652Z,8.90
2023-05-12T00:57:33.814Z,7.50
2023-05-12T01:00:01.935Z,8.10
2023-05-12T01:02:30.463Z,12.50
2023-05-12T01:04:58.581Z,7.70
2023-05-12T01:07:27.832Z,9.80
2023-05-12T01:09:56.548Z,8.40
2023-05-12T01:12:27.421Z,9.70
2023-05-12T01:14:57.311Z,10.20
2023-05-12T01:17:36.116Z,11.80
2023-05-12T01:20:09.390Z,13.00
2023-05-12T01:22:38.992Z,14.50
2023-05-12T01:25:12.542Z,16.90
2023-05-12T01:27:43.046Z,17.20
2023-05-12T01:30:16.925Z,13.70
2023-05-12T01:32:45.638Z,14.70
2023-05-12T01:35:13.623Z,18.10
2023-05-12T01:37:47.307Z,16.70
2023-05-12T01:40:15.358Z,16.40
2023-05-12T01:42:43.325Z,18.40
2023-05-12T01:45:12.710Z,16.70
2023-05-12T01:47:41.111Z,20.50
2023-05-12T01:50:10.952Z,18.50
2023-05-12T01:52:39.102Z,18.30
2023-05-12T01:55:10.855Z,21.50
2023-05-12T01:57:45.862Z,18.70
2023-05-12T02:00:14.646Z,20.20
2023-05-12T02:02:45.215Z,20.70
2023-05-12T02:05:13.634Z,21.30
2023-05-12T02:07:42.511Z,21.60
2023-05-12T02:10:10.707Z,21.90
2023-05-12T02:12:39.115Z,18.20
2023-05-12T02:15:07.609Z,21.10
2023-05-12T02:17:37.087Z,18.50
2023-05-12T02:20:06.849Z,19.80
2023-05-12T02:22:34.720Z,19.90
2023-05-12T02:25:02.902Z,20.00
2023-05-12T02:27:32.548Z,20.50
2023-05-12T02:30:00.371Z,21.70
2023-05-12T02:32:28.664Z,23.70
2023-05-12T02:34:56.978Z,22.20
2023-05-12T02:37:24.947Z,23.00
2023-05-12T02:39:52.801Z,22.40
2023-05-12T02:42:20.755Z,20.40
2023-05-12T02:44:48.591Z,21.50
2023-05-12T02:47:16.378Z,22.60
2023-05-12T02:49:44.513Z,23.10
2023-05-12T02:52:12.393Z,22.00
2023-05-12T02:54:40.284Z,24.90
2023-05-12T02:57:08.254Z,21.60
2023-05-12T02:59:36.069Z,21.80
2023-05-12T03:02:05.546Z,20.20
2023-05-12T03:04:33.555Z,24.00
2023-05-12T03:07:01.406Z,20.10
2023-05-12T03:09:29.304Z,18.30
2023-05-12T03:11:57.938Z,18.60
2023-05-12T03:14:26.679Z,18.80
2023-05-12T03:16:54.499Z,17.30
2023-05-12T03:19:22.309Z,16.70
2023-05-12T03:21:51.199Z,16.30
2023-05-12T03:24:18.979Z,16.30
2023-05-12T03:26:46.989Z,16.20
2023-05-12T03:29:14.727Z,18.70
2023-05-12T03:31:42.557Z,18.20
2023-05-12T03:34:10.640Z,18.80
2023-05-12T03:36:38.680Z,20.70
2023-05-12T03:39:08.753Z,20.40
2023-05-12T03:41:37.002Z,21.70
2023-05-12T03:44:06.232Z,20.60
2023-05-12T03:46:35.208Z,21.60
2023-05-12T03:49:03.282Z,21.90
2023-05-12T03:51:31.241Z,22.50
2023-05-12T03:53:59.106Z,22.60
2023-05-12T03:56:28.546Z,23.60
2023-05-12T03:58:57.555Z,20.00
2023-05-12T04:01:25.553Z,21.80
2023-05-12T04:03:53.455Z,20.20
2023-05-12T04:06:21.450Z,22.50
2023-05-12T04:08:49.242Z,18.20
2023-05-12T04:11:17.033Z,19.50
2023-05-12T04:13:45.022Z,18.00
2023-05-12T04:16:12.847Z,21.00
2023-05-12T04:18:40.936Z,19.40
2023-05-12T04:21:09.183Z,19.30
2023-05-12T04:23:37.012Z,21.80
2023-05-12T04:26:05.411Z,18.80
2023-05-12T04:28:33.369Z,19.50
2023-05-12T04:31:04.685Z,16.50
2023-05-12T04:33:32.894Z,21.70
2023-05-12T04:36:01.400Z,17.70
2023-05-12T04:38:29.455Z,19.10
2023-05-12T04:41:01.217Z,20.30
2023-05-12T04:48:29.974Z,17.90
2023-05-12T04:51:00.930Z,17.20
2023-05-12T04:55:56.922Z,19.10
2023-05-12T04:58:25.991Z,17.10
2023-05-12T05:00:55.252Z,16.80
2023-05-12T05:03:23.593Z,20.70
2023-05-12T05:05:51.644Z,15.20
2023-05-12T05:08:19.447Z,17.10
2023-05-12T05:10:47.218Z,14.50
2023-05-12T05:13:16.471Z,16.20
2023-05-12T05:15:54.694Z,19.00
2023-05-12T05:18:24.721Z,14.90
2023-05-12T05:20:58.436Z,14.80
2023-05-12T05:23:26.933Z,15.40
2023-05-12T05:25:55.235Z,18.40
2023-05-12T05:28:23.156Z,14.90
2023-05-12T05:30:50.932Z,15.90
2023-05-12T05:33:18.712Z,15.20
2023-05-12T05:35:48.025Z,12.80
2023-05-12T05:38:16.316Z,14.90
2023-05-12T05:40:52.848Z,12.20
2023-05-12T05:43:21.854Z,12.30
2023-05-12T05:45:50.826Z,14.60
2023-05-12T05:48:19.620Z,14.60
2023-05-12T05:50:48.732Z,13.60
2023-05-12T05:53:18.606Z,16.00
2023-05-12T05:55:48.773Z,18.10
2023-05-12T05:58:16.862Z,14.40
2023-05-12T06:00:45.351Z,12.70
2023-05-12T06:03:13.437Z,11.10
2023-05-12T06:05:43.185Z,16.00
2023-05-12T06:08:13.410Z,11.20
2023-05-12T06:10:41.721Z,10.50
2023-05-12T06:13:09.783Z,12.70
2023-05-12T06:15:37.696Z,10.90
2023-05-12T06:18:05.796Z,8.60
2023-05-12T06:20:33.759Z,9.80
2023-05-12T06:23:02.566Z,11.30
2023-05-12T06:25:30.468Z,10.50
2023-05-12T06:27:58.185Z,11.80
2023-05-12T06:30:26.892Z,14.10
2023-05-12T06:32:56.135Z,8.70
2023-05-12T06:35:23.947Z,12.00
2023-05-12T06:37:51.758Z,11.00
2023-05-12T06:40:19.616Z,12.10
2023-05-12T06:42:47.953Z,12.00
2023-05-12T06:45:21.155Z,10.60
2023-05-12T06:47:50.374Z,10.70
2023-05-12T06:50:19.447Z,10.70
2023-05-12T06:52:51.230Z,9.70
2023-05-12T06:55:20.692Z,9.80
2023-05-12T06:57:51.504Z,13.40
2023-05-12T07:00:19.701Z,11.80
2023-05-12T07:02:47.541Z,12.00
2023-05-12T07:05:15.374Z,10.90
2023-05-12T07:07:43.099Z,10.30
2023-05-12T07:10:11.196Z,12.40
2023-05-12T07:12:39.339Z,10.60
2023-05-12T07:15:08.582Z,11.30
2023-05-12T07:17:36.410Z,11.70
2023-05-12T07:20:05.759Z,11.50
2023-05-12T07:22:33.855Z,11.80
2023-05-12T07:25:01.811Z,11.10
2023-05-12T07:27:29.578Z,10.30
2023-05-12T07:29:57.624Z,11.90
2023-05-12T07:32:25.738Z,10.70
2023-05-12T07:34:53.513Z,12.90
2023-05-12T07:37:21.311Z,11.40
2023-05-12T07:39:49.614Z,13.10
2023-05-12T07:42:17.485Z,10.30
2023-05-12T07:44:45.265Z,10.00
2023-05-12T07:47:13.001Z,11.20
2023-05-12T07:49:40.974Z,12.10
2023-05-12T07:52:08.756Z,11.40
2023-05-12T07:54:36.496Z,12.20
2023-05-12T07:57:04.749Z,8.50
2023-05-12T07:59:33.329Z,13.00
2023-05-12T08:02:01.113Z,12.70
2023-05-12T08:04:29.029Z,13.00
2023-05-12T08:06:56.787Z,14.10
2023-05-12T08:09:24.659Z,13.60
2023-05-12T08:11:52.484Z,11.60
2023-05-12T08:14:22.370Z,13.90
2023-05-12T08:16:50.158Z,13.90
2023-05-12T08:19:18.098Z,15.80
2023-05-12T08:21:45.905Z,14.60
2023-05-12T08:24:13.629Z,13.90
2023-05-12T08:26:41.381Z,13.40
2023-05-12T08:29:09.654Z,12.70
2023-05-12T08:31:38.731Z,11.60
2023-05-12T08:34:10.775Z,12.80
2023-05-12T08:36:40.372Z,9.60
2023-05-12T08:39:11.639Z,10.90
2023-05-12T08:44:13.206Z,12.40
2023-05-12T08:46:42.910Z,13.20
2023-05-12T08:49:16.503Z,14.70
2023-05-12T08:51:56.852Z,13.50
2023-05-12T08:54:29.487Z,11.70
2023-05-12T08:59:28.212Z,11.70
2023-05-12T09:01:56.987Z,13.60
2023-05-12T09:04:24.869Z,13.10
2023-05-12T09:06:55.587Z,12.60
2023-05-12T09:09:28.440Z,11.00
2023-05-12T09:11:59.833Z,13.30
2023-05-12T09:14:33.844Z,12.30
2023-05-12T09:17:05.324Z,14.10
2023-05-12T09:19:34.390Z,11.80
2023-05-12T09:22:02.187Z,12.00
2023-05-12T09:24:38.316Z,9.90
2023-05-12T09:27:07.320Z,9.80
2023-05-12T09:29:42.539Z,8.50
2023-05-12T09:32:34.175Z,7.10
2023-05-12T09:35:07.830Z,7.10
2023-05-12T09:37:35.621Z,7.50
2023-05-12T09:40:06.761Z,8.30
2023-05-12T09:42:35.866Z,7.70
2023-05-12T09:45:05.859Z,7.10
2023-05-12T09:47:41.031Z,6.00
2023-05-12T09:50:10.233Z,5.20
2023-05-12T09:52:39.826Z,6.40
2023-05-12T09:55:13.214Z,7.30
2023-05-12T09:57:45.644Z,6.20
2023-05-12T10:00:36.585Z,6.50
2023-05-12T10:03:15.318Z,6.20
2023-05-12T10:05:51.789Z,5.70
2023-05-12T10:08:34.916Z,5.50
2023-05-12T10:11:05.435Z,5.70
2023-05-12T10:13:34.693Z,6.20
2023-05-12T10:16:03.620Z,6.10
2023-05-12T10:18:34.618Z,5.60
2023-05-12T10:21:04.033Z,8.50
2023-05-12T10:23:32.811Z,5.90
2023-05-12T10:26:02.453Z,7.40
2023-05-12T10:28:30.325Z,7.30
2023-05-12T10:30:59.445Z,6.30
2023-05-12T10:33:27.755Z,6.00
2023-05-12T10:35:55.823Z,7.60
2023-05-12T10:38:23.789Z,6.20
2023-05-12T10:41:05.555Z,6.30
2023-05-12T10:43:48.137Z,4.70
2023-05-12T10:46:19.604Z,6.10
2023-05-12T10:49:08.463Z,5.70
2023-05-12T10:51:45.328Z,6.20
2023-05-12T10:54:21.852Z,6.10
2023-05-12T10:56:50.361Z,6.10
2023-05-12T10:59:23.072Z,6.10
2023-05-12T11:02:06.940Z,6.40
2023-05-12T11:04:55.537Z,7.00
2023-05-12T11:07:30.533Z,7.70
2023-05-12T11:10:02.017Z,9.50
2023-05-12T11:12:33.476Z,7.70
2023-05-12T11:15:03.912Z,5.90
2023-05-12T11:17:32.565Z,6.80
2023-05-12T11:20:01.471Z,9.20
2023-05-12T11:22:29.726Z,8.00
2023-05-12T11:24:57.728Z,5.50
2023-05-12T11:27:26.544Z,6.80
2023-05-12T11:30:00.670Z,6.60
2023-05-12T11:32:29.702Z,5.40
2023-05-12T11:35:16.459Z,5.40
2023-05-12T11:37:46.263Z,5.70
2023-05-12T11:40:22.907Z,4.30
2023-05-12T11:42:53.021Z,5.50
2023-05-12T11:45:27.566Z,4.20
2023-05-12T11:48:13.809Z,4.60
2023-05-12T11:50:48.678Z,5.30
2023-05-12T11:53:19.214Z,3.60
2023-05-12T11:55:56.371Z,5.10
2023-05-12T11:58:27.232Z,5.70
2023-05-12T12:00:57.271Z,2.80
2023-05-12T12:03:25.765Z,3.40
2023-05-12T12:06:06.667Z,6.40
2023-05-12T12:08:34.554Z,4.00
2023-05-12T12:11:04.149Z,4.50
2023-05-12T12:13:32.026Z,4.30
2023-05-12T12:15:59.914Z,4.00
2023-05-12T12:18:27.727Z,4.80
2023-05-12T12:20:55.540Z,3.80
2023-05-12T12:23:23.386Z,4.60
2023-05-12T12:25:51.518Z,4.10
2023-05-12T12:28:19.945Z,5.10
2023-05-12T12:30:48.017Z,2.70
2023-05-12T12:33:18.888Z,3.40
2023-05-12T12:35:48.361Z,5.10
2023-05-12T12:38:16.510Z,3.70
2023-05-12T12:40:44.687Z,3.80
2023-05-12T12:43:12.463Z,5.30
2023-05-12T12:45:40.243Z,5.90
2023-05-12T12:48:09.513Z,5.40
2023-05-12T12:50:37.492Z,5.30
2023-05-12T12:53:05.676Z,5.30
2023-05-12T12:55:33.462Z,3.60
2023-05-12T12:58:01.344Z,4.40
2023-05-12T13:00:29.481Z,3.60
2023-05-12T13:02:57.559Z,3.80
2023-05-12T13:05:25.767Z,5.10
2023-05-12T13:07:53.572Z,4.30
2023-05-12T13:10:21.468Z,4.20
2023-05-12T13:12:49.212Z,3.80
2023-05-12T13:15:19.485Z,3.40
2023-05-12T13:17:47.898Z,4.70
2023-05-12T13:20:16.565Z,5.80
2023-05-12T13:22:45.445Z,4.30
2023-05-12T13:25:13.208Z,4.20
2023-05-12T13:27:41.115Z,3.20
2023-05-12T13:30:10.891Z,3.60
2023-05-12T13:32:40.829Z,3.70
2023-05-12T13:35:09.582Z,4.90
2023-05-12T13:37:37.817Z,4.10
2023-05-12T13:40:06.919Z,4.30
2023-05-12T13:42:34.989Z,6.10
2023-05-12T13:45:03.121Z,4.10
2023-05-12T13:47:30.988Z,4.10
2023-05-12T13:49:58.975Z,5.60
2023-05-12T13:52:27.506Z,6.30
2023-05-12T13:54:55.330Z,5.30
2023-05-12T13:57:23.162Z,6.30
2023-05-12T13:59:52.094Z,6.70
2023-05-12T14:02:19.926Z,8.30
2023-05-12T14:04:47.803Z,6.90
2023-05-12T14:07:15.831Z,9.60
2023-05-12T14:09:43.575Z,7.20
2023-05-12T14:12:11.413Z,7.60
2023-05-12T14:14:39.162Z,7.10
2023-05-12T14:17:06.954Z,7.60
2023-05-12T14:19:35.799Z,6.50
2023-05-12T14:22:12.520Z,9.30
2023-05-12T14:24:46.719Z,7.80
2023-05-12T14:27:14.475Z,8.90
2023-05-12T14:29:42.236Z,10.20
2023-05-12T14:32:10.236Z,9.20
2023-05-12T14:34:38.072Z,10.90
2023-05-12T14:37:06.435Z,14.00
2023-05-12T14:39:34.401Z,13.50
2023-05-12T14:42:02.146Z,14.10
2023-05-12T14:44:29.867Z,14.10
2023-05-12T14:46:57.778Z,12.70
2023-05-12T14:49:25.607Z,13.70
2023-05-12T14:51:53.363Z,12.00
2023-05-12T14:54:25.720Z,13.20
2023-05-12T14:56:54.061Z,12.20
2023-05-12T14:59:22.176Z,11.50
2023-05-12T15:01:50.235Z,13.40
2023-05-12T15:04:18.156Z,13.90
2023-05-12T15:06:46.000Z,12.50
2023-05-12T15:09:13.838Z,12.30
2023-05-12T15:11:45.384Z,11.70
2023-05-12T15:14:13.224Z,14.50
2023-05-12T15:16:41.863Z,12.20
2023-05-12T15:19:10.028Z,12.80
2023-05-12T15:21:38.099Z,11.40
2023-05-12T15:24:06.443Z,11.30
2023-05-12T15:26:35.620Z,11.40
2023-05-12T15:29:04.678Z,10.20
2023-05-12T15:31:32.504Z,10.10
2023-05-12T15:34:00.802Z,10.10
2023-05-12T15:36:28.606Z,10.70
2023-05-12T15:38:56.714Z,11.60
2023-05-12T15:41:24.504Z,10.70
2023-05-12T15:43:52.280Z,11.20
2023-05-12T15:46:20.096Z,14.70
2023-05-12T15:48:50.905Z,10.40
2023-05-12T15:51:18.763Z,14.90
2023-05-12T15:53:46.782Z,11.00
2023-05-12T15:56:14.653Z,12.20
2023-05-12T15:58:42.511Z,19.60
2023-05-12T16:01:10.497Z,14.00
2023-05-12T16:03:38.663Z,11.60
2023-05-12T16:06:08.219Z,14.70
2023-05-12T16:08:36.837Z,12.60
2023-05-12T16:11:05.288Z,12.60
2023-05-12T16:13:33.277Z,13.50
2023-05-12T16:16:02.055Z,12.80
2023-05-12T16:18:31.240Z,13.10
2023-05-12T16:20:59.512Z,11.40
2023-05-12T16:23:28.159Z,12.50
2023-05-12T16:25:56.021Z,12.40
2023-05-12T16:28:23.852Z,10.20
2023-05-12T16:30:51.601Z,8.10
2023-05-12T16:33:19.587Z,10.90
2023-05-12T16:35:47.399Z,12.90
2023-05-12T16:38:15.311Z,11.80
2023-05-12T16:40:43.110Z,13.50
2023-05-12T16:43:10.932Z,13.10
2023-05-12T16:45:39.072Z,13.40
2023-05-12T16:48:06.932Z,10.90
2023-05-12T16:50:34.776Z,11.90
2023-05-12T16:53:02.562Z,14.30
2023-05-12T16:55:30.866Z,12.90
2023-05-12T16:57:58.638Z,15.90
2023-05-12T17:00:26.889Z,16.60
2023-05-12T17:02:55.118Z,12.40
2023-05-12T17:05:23.339Z,10.50
2023-05-12T17:07:51.218Z,14.10
2023-05-12T17:10:18.971Z,14.60
2023-05-12T17:12:46.820Z,15.80
2023-05-12T17:15:14.744Z,13.20
2023-05-12T17:17:42.545Z,16.00
2023-05-12T17:20:11.702Z,13.20
2023-05-12T17:22:43.997Z,12.30
2023-05-12T17:25:12.584Z,17.50
2023-05-12T17:27:40.445Z,15.30
2023-05-12T17:30:09.224Z,13.90
2023-05-12T17:32:37.424Z,16.00
2023-05-12T17:35:08.000Z,12.60
2023-05-12T17:37:37.227Z,15.90
2023-05-12T17:40:14.562Z,14.90
2023-05-12T17:42:42.372Z,12.30
2023-05-12T17:45:11.453Z,16.00
2023-05-12T17:47:39.319Z,13.80
2023-05-12T17:50:10.752Z,13.20
2023-05-12T17:55:08.202Z,16.50
2023-05-12T17:57:38.076Z,20.10
2023-05-12T18:00:10.434Z,16.70
2023-05-12T18:02:45.052Z,18.10
2023-05-12T18:05:12.987Z,17.40
2023-05-12T18:07:40.757Z,16.30
2023-05-12T18:10:11.126Z,18.50
2023-05-12T18:12:39.195Z,15.00
2023-05-12T18:15:08.626Z,16.00
2023-05-12T18:17:36.772Z,14.90
2023-05-12T18:20:06.616Z,16.30
2023-05-12T18:22:34.507Z,17.80
2023-05-12T18:25:02.479Z,14.90
2023-05-12T18:27:30.443Z,14.90
2023-05-12T18:29:59.758Z,15.00
2023-05-12T18:32:27.623Z,17.80
2023-05-12T18:34:55.394Z,16.50
2023-05-12T18:37:23.562Z,15.40
2023-05-12T18:39:53.361Z,18.90
2023-05-12T18:42:21.246Z,14.40
2023-05-12T18:44:49.202Z,15.30
2023-05-12T18:47:17.264Z,14.30
2023-05-12T18:49:45.201Z,17.50
2023-05-12T18:52:13.793Z,16.90
2023-05-12T18:54:42.207Z,17.60
2023-05-12T18:57:10.307Z,16.40
2023-05-12T18:59:38.735Z,18.20
2023-05-12T19:02:07.940Z,17.90
2023-05-12T19:04:37.038Z,15.90
2023-05-12T19:07:10.022Z,16.00
2023-05-12T19:09:38.708Z,19.50
2023-05-12T19:12:11.958Z,14.60
2023-05-12T19:14:41.640Z,16.20
2023-05-12T19:17:11.189Z,15.40
2023-05-12T19:19:40.314Z,18.00
2023-05-12T19:22:08.504Z,15.60
2023-05-12T19:24:38.487Z,16.30
2023-05-12T19:27:06.838Z,17.20
2023-05-12T19:29:34.680Z,13.70
2023-05-12T19:32:02.787Z,15.80
2023-05-12T19:34:31.581Z,14.70
2023-05-12T19:37:02.226Z,16.50
2023-05-12T19:39:30.041Z,16.00
2023-05-12T19:41:58.093Z,14.60
2023-05-12T19:44:25.847Z,18.20
2023-05-12T19:46:55.064Z,18.30
2023-05-12T19:49:22.802Z,18.70
2023-05-12T19:51:51.841Z,17.40
2023-05-12T19:54:22.339Z,15.90
2023-05-12T19:56:50.275Z,15.20
2023-05-12T19:59:18.857Z,17.00
2023-05-12T20:01:47.257Z,16.20
2023-05-12T20:04:16.210Z,17.20
2023-05-12T20:06:44.864Z,17.10
2023-05-12T20:09:13.058Z,17.60
2023-05-12T20:11:41.151Z,21.40
2023-05-12T20:14:08.967Z,17.30
2023-05-12T20:16:38.207Z,15.10
2023-05-12T20:19:06.217Z,19.50
2023-05-12T20:21:34.351Z,18.00
2023-05-12T20:24:02.179Z,17.80
2023-05-12T20:26:30.631Z,17.80
2023-05-12T20:28:59.619Z,16.90
2023-05-12T20:31:27.802Z,15.90
2023-05-12T20:33:56.381Z,22.00
2023-05-12T20:36:24.113Z,16.80
2023-05-12T20:38:51.967Z,17.60
2023-05-12T20:41:20.212Z,15.40
2023-05-12T20:43:49.074Z,17.20
2023-05-12T20:46:17.394Z,16.40
2023-05-12T20:48:45.534Z,16.60
2023-05-12T20:51:13.946Z,18.00
2023-05-12T20:53:42.766Z,15.20
2023-05-12T20:56:13.287Z,16.80
2023-05-12T20:58:42.465Z,14.70
2023-05-12T21:01:11.094Z,20.40
2023-05-12T21:03:39.337Z,18.30
2023-05-12T21:06:07.440Z,22.30
2023-05-12T21:08:35.429Z,18.00
2023-05-12T21:11:03.193Z,20.80
2023-05-12T21:13:31.003Z,18.90
2023-05-12T21:15:58.731Z,19.70
2023-05-12T21:18:27.073Z,16.70
2023-05-12T21:20:54.913Z,17.10
2023-05-12T21:23:22.631Z,17.70
2023-05-12T21:25:53.681Z,22.10
2023-05-12T21:28:22.054Z,19.30
2023-05-12T21:30:49.865Z,14.70
2023-05-12T21:33:17.620Z,18.40
2023-05-12T21:35:45.584Z,17.00
2023-05-12T21:38:13.392Z,18.90
2023-05-12T21:40:41.125Z,21.20
2023-05-12T21:43:08.905Z,20.20
2023-05-12T21:45:37.237Z,20.30
2023-05-12T21:48:05.579Z,16.90
2023-05-12T21:50:33.454Z,20.10
2023-05-12T21:53:01.270Z,16.60
2023-05-12T21:55:29.065Z,18.50
2023-05-12T21:57:57.400Z,17.40
2023-05-12T22:00:26.279Z,19.20
2023-05-12T22:02:54.261Z,15.80
2023-05-12T22:05:22.121Z,17.20
2023-05-12T22:07:49.923Z,16.60
2023-05-12T22:10:18.252Z,14.40
2023-05-12T22:12:46.596Z,15.10
2023-05-12T22:15:14.767Z,16.60
2023-05-12T22:17:43.201Z,17.10
2023-05-12T22:20:12.079Z,12.60
2023-05-12T22:22:40.055Z,16.60
2023-05-12T22:25:08.943Z,17.50
2023-05-12T22:27:37.382Z,15.00
2023-05-12T22:30:06.044Z,15.90
2023-05-12T22:32:33.969Z,17.50
2023-05-12T22:35:02.310Z,11.50
2023-05-12T22:37:30.228Z,12.90
2023-05-12T22:39:58.068Z,14.60
2023-05-12T22:42:25.811Z,15.50
2023-05-12T22:44:53.512Z,14.80
2023-05-12T22:47:21.505Z,16.00
2023-05-12T22:49:49.313Z,16.10
2023-05-12T22:52:17.040Z,16.40
2023-05-12T22:54:44.761Z,13.30
2023-05-12T22:57:12.538Z,14.40
2023-05-12T22:59:40.389Z,12.70
2023-05-12T23:02:08.629Z,15.40
2023-05-12T23:04:36.402Z,14.80
2023-05-12T23:07:05.374Z,14.80
2023-05-12T23:09:34.716Z,15.10
2023-05-12T23:12:04.291Z,14.00
2023-05-12T23:14:32.153Z,17.80
2023-05-12T23:17:00.046Z,15.70
2023-05-12T23:19:27.974Z,15.90
2023-05-12T23:21:55.862Z,14.80
2023-05-12T23:24:23.726Z,15.40
2023-05-12T23:26:51.551Z,16.80
2023-05-12T23:29:19.283Z,16.80
2023-05-12T23:31:47.268Z,13.30
2023-05-12T23:34:15.098Z,13.90
2023-05-12T23:36:42.850Z,16.60
2023-05-12T23:39:10.720Z,17.50
2023-05-12T23:41:38.452Z,14.50
2023-05-12T23:44:06.343Z,20.70
2023-05-12T23:46:34.492Z,12.60
2023-05-12T23:49:02.281Z,13.60
2023-05-12T23:51:30.067Z,13.60
2023-05-12T23:53:57.881Z,10.10
2023-05-12T23:56:25.762Z,13.80
2023-05-12T23:58:53.607Z,15.10
